sensor_id;sensor_type;location;lat;lon;timestamp;pressure;altitude;pressure_sealevel;temperature;humidity
76730;BME280;65653;53.106;18.046;2022-12-18T00:01:46;102449.31;;;-4.93;88.97
76730;BME280;65653;53.106;18.046;2022-12-18T00:04:20;102445.31;;;-4.97;89.21
76730;BME280;65653;53.106;18.046;2022-12-18T00:06:47;102457.21;;;-4.97;89.39
76730;BME280;65653;53.106;18.046;2022-12-18T00:09:14;102454.66;;;-4.93;89.56
76730;BME280;65653;53.106;18.046;2022-12-18T00:11:41;102459.96;;;-4.90;89.38
76730;BME280;65653;53.106;18.046;2022-12-18T00:14:09;102469.60;;;-4.92;89.42
76730;BME280;65653;53.106;18.046;2022-12-18T00:16:37;102471.13;;;-4.94;89.53
76730;BME280;65653;53.106;18.046;2022-12-18T00:19:05;102473.75;;;-4.92;89.41
76730;BME280;65653;53.106;18.046;2022-12-18T00:21:32;102475.06;;;-4.89;89.42
76730;BME280;65653;53.106;18.046;2022-12-18T00:23:59;102469.74;;;-4.87;89.20
76730;BME280;65653;53.106;18.046;2022-12-18T00:26:29;102472.88;;;-4.88;89.23
76730;BME280;65653;53.106;18.046;2022-12-18T00:29:00;102467.93;;;-4.91;89.18
76730;BME280;65653;53.106;18.046;2022-12-18T00:31:27;102469.78;;;-4.92;89.31
76730;BME280;65653;53.106;18.046;2022-12-18T00:33:55;102477.05;;;-4.89;89.37
76730;BME280;65653;53.106;18.046;2022-12-18T00:36:25;102480.44;;;-4.84;89.17
76730;BME280;65653;53.106;18.046;2022-12-18T00:38:56;102489.02;;;-4.82;89.24
76730;BME280;65653;53.106;18.046;2022-12-18T00:41:24;102493.88;;;-4.82;89.13
76730;BME280;65653;53.106;18.046;2022-12-18T00:44:11;102493.61;;;-4.85;89.23
76730;BME280;65653;53.106;18.046;2022-12-18T00:46:38;102494.92;;;-4.82;89.24
76730;BME280;65653;53.106;18.046;2022-12-18T00:49:05;102497.95;;;-4.77;89.12
76730;BME280;65653;53.106;18.046;2022-12-18T00:51:32;102498.85;;;-4.76;89.08
76730;BME280;65653;53.106;18.046;2022-12-18T00:53:58;102503.40;;;-4.77;89.11
76730;BME280;65653;53.106;18.046;2022-12-18T00:56:25;102504.95;;;-4.80;89.17
76730;BME280;65653;53.106;18.046;2022-12-18T00:58:51;102502.69;;;-4.82;89.26
76730;BME280;65653;53.106;18.046;2022-12-18T01:01:18;102503.25;;;-4.78;89.17
76730;BME280;65653;53.106;18.046;2022-12-18T01:03:44;102509.78;;;-4.75;89.03
76730;BME280;65653;53.106;18.046;2022-12-18T01:06:15;102508.29;;;-4.74;88.87
76730;BME280;65653;53.106;18.046;2022-12-18T01:08:43;102510.46;;;-4.79;88.92
76730;BME280;65653;53.106;18.046;2022-12-18T01:11:20;102514.82;;;-4.80;89.02
76730;BME280;65653;53.106;18.046;2022-12-18T01:13:47;102520.59;;;-4.75;89.00
76730;BME280;65653;53.106;18.046;2022-12-18T01:16:14;102513.49;;;-4.74;88.88
76730;BME280;65653;53.106;18.046;2022-12-18T01:18:41;102520.39;;;-4.74;88.90
76730;BME280;65653;53.106;18.046;2022-12-18T01:21:11;102528.41;;;-4.77;88.97
76730;BME280;65653;53.106;18.046;2022-12-18T01:23:38;102523.95;;;-4.78;88.96
76730;BME280;65653;53.106;18.046;2022-12-18T01:26:10;102526.56;;;-4.76;88.98
76730;BME280;65653;53.106;18.046;2022-12-18T01:28:39;102533.45;;;-4.73;88.94
76730;BME280;65653;53.106;18.046;2022-12-18T01:31:19;102535.27;;;-4.68;88.80
76730;BME280;65653;53.106;18.046;2022-12-18T01:33:50;102539.19;;;-4.67;88.66
76730;BME280;65653;53.106;18.046;2022-12-18T01:36:22;102543.70;;;-4.68;88.66
76730;BME280;65653;53.106;18.046;2022-12-18T01:38:50;102553.08;;;-4.68;88.63
76730;BME280;65653;53.106;18.046;2022-12-18T01:41:18;102553.92;;;-4.67;88.63
76730;BME280;65653;53.106;18.046;2022-12-18T01:43:55;102545.45;;;-4.62;88.49
76730;BME280;65653;53.106;18.046;2022-12-18T01:46:26;102543.20;;;-4.60;88.35
76730;BME280;65653;53.106;18.046;2022-12-18T01:49:02;102549.18;;;-4.61;88.32
76730;BME280;65653;53.106;18.046;2022-12-18T01:51:30;102551.02;;;-4.62;88.29
76730;BME280;65653;53.106;18.046;2022-12-18T01:53:57;102551.00;;;-4.66;88.39
76730;BME280;65653;53.106;18.046;2022-12-18T01:56:24;102550.17;;;-4.64;88.25
76730;BME280;65653;53.106;18.046;2022-12-18T01:59:03;102548.04;;;-4.60;88.08
76730;BME280;65653;53.106;18.046;2022-12-18T02:01:32;102543.81;;;-4.62;88.16
76730;BME280;65653;53.106;18.046;2022-12-18T02:04:19;102549.05;;;-4.66;88.24
76730;BME280;65653;53.106;18.046;2022-12-18T02:06:50;102561.47;;;-4.70;88.36
76730;BME280;65653;53.106;18.046;2022-12-18T02:09:21;102563.69;;;-4.68;88.30
76730;BME280;65653;53.106;18.046;2022-12-18T02:12:08;102558.48;;;-4.64;88.05
76730;BME280;65653;53.106;18.046;2022-12-18T02:14:45;102561.75;;;-4.64;88.02
76730;BME280;65653;53.106;18.046;2022-12-18T02:17:50;102561.65;;;-4.66;88.08
76730;BME280;65653;53.106;18.046;2022-12-18T02:20:32;102569.70;;;-4.69;88.17
76730;BME280;65653;53.106;18.046;2022-12-18T02:23:16;102574.94;;;-4.65;87.96
76730;BME280;65653;53.106;18.046;2022-12-18T02:26:05;102572.54;;;-4.59;87.69
76730;BME280;65653;53.106;18.046;2022-12-18T02:28:40;102573.09;;;-4.59;87.60
76730;BME280;65653;53.106;18.046;2022-12-18T02:31:11;102580.04;;;-4.62;87.54
76730;BME280;65653;53.106;18.046;2022-12-18T02:33:41;102589.63;;;-4.63;87.66
76730;BME280;65653;53.106;18.046;2022-12-18T02:36:10;102592.80;;;-4.65;87.70
76730;BME280;65653;53.106;18.046;2022-12-18T02:38:39;102599.40;;;-4.68;87.79
76730;BME280;65653;53.106;18.046;2022-12-18T02:41:07;102595.39;;;-4.67;87.78
76730;BME280;65653;53.106;18.046;2022-12-18T02:43:33;102595.30;;;-4.65;87.79
76730;BME280;65653;53.106;18.046;2022-12-18T02:46:01;102599.16;;;-4.63;87.71
76730;BME280;65653;53.106;18.046;2022-12-18T02:48:47;102597.70;;;-4.66;87.61
76730;BME280;65653;53.106;18.046;2022-12-18T02:52:02;102601.92;;;-4.73;87.77
76730;BME280;65653;53.106;18.046;2022-12-18T02:57:42;102604.94;;;-4.72;87.95
76730;BME280;65653;53.106;18.046;2022-12-18T03:00:16;102606.98;;;-4.77;87.95
76730;BME280;65653;53.106;18.046;2022-12-18T03:03:11;102604.95;;;-4.80;88.21
76730;BME280;65653;53.106;18.046;2022-12-18T03:05:53;102605.96;;;-4.79;88.21
76730;BME280;65653;53.106;18.046;2022-12-18T03:08:34;102602.92;;;-4.80;88.15
76730;BME280;65653;53.106;18.046;2022-12-18T03:11:05;102613.31;;;-4.82;88.11
76730;BME280;65653;53.106;18.046;2022-12-18T03:13:43;102617.60;;;-4.86;88.20
76730;BME280;65653;53.106;18.046;2022-12-18T03:16:16;102621.86;;;-4.85;88.24
76730;BME280;65653;53.106;18.046;2022-12-18T03:18:54;102625.39;;;-4.83;88.12
76730;BME280;65653;53.106;18.046;2022-12-18T03:21:45;102622.45;;;-4.81;88.03
76730;BME280;65653;53.106;18.046;2022-12-18T03:24:11;102625.97;;;-4.83;88.05
76730;BME280;65653;53.106;18.046;2022-12-18T03:26:42;102624.27;;;-4.86;88.07
76730;BME280;65653;53.106;18.046;2022-12-18T03:32:50;102625.52;;;-4.81;88.20
76730;BME280;65653;53.106;18.046;2022-12-18T03:35:22;102632.59;;;-4.83;88.15
76730;BME280;65653;53.106;18.046;2022-12-18T03:37:53;102641.23;;;-4.87;88.34
76730;BME280;65653;53.106;18.046;2022-12-18T03:40:24;102643.33;;;-4.90;88.37
76730;BME280;65653;53.106;18.046;2022-12-18T03:43:02;102642.94;;;-4.89;88.47
76730;BME280;65653;53.106;18.046;2022-12-18T03:45:34;102648.73;;;-4.86;88.34
76730;BME280;65653;53.106;18.046;2022-12-18T03:48:07;102654.09;;;-4.84;88.31
76730;BME280;65653;53.106;18.046;2022-12-18T03:50:37;102649.56;;;-4.83;88.15
76730;BME280;65653;53.106;18.046;2022-12-18T03:55:51;102663.84;;;-4.85;88.31
76730;BME280;65653;53.106;18.046;2022-12-18T03:58:21;102659.59;;;-4.82;88.36
76730;BME280;65653;53.106;18.046;2022-12-18T04:00:49;102663.36;;;-4.82;88.15
76730;BME280;65653;53.106;18.046;2022-12-18T04:03:18;102660.59;;;-4.84;88.25
76730;BME280;65653;53.106;18.046;2022-12-18T04:05:48;102656.42;;;-4.88;88.26
76730;BME280;65653;53.106;18.046;2022-12-18T04:08:17;102652.61;;;-4.87;88.29
76730;BME280;65653;53.106;18.046;2022-12-18T04:10:44;102656.16;;;-4.86;88.15
76730;BME280;65653;53.106;18.046;2022-12-18T04:13:11;102657.55;;;-4.85;88.08
76730;BME280;65653;53.106;18.046;2022-12-18T04:15:38;102660.45;;;-4.85;88.13
76730;BME280;65653;53.106;18.046;2022-12-18T04:18:07;102660.52;;;-4.87;88.19
76730;BME280;65653;53.106;18.046;2022-12-18T04:20:34;102665.08;;;-4.88;88.38
76730;BME280;65653;53.106;18.046;2022-12-18T04:23:00;102664.60;;;-4.86;88.31
76730;BME280;65653;53.106;18.046;2022-12-18T04:25:27;102666.02;;;-4.80;88.20
76730;BME280;65653;53.106;18.046;2022-12-18T04:27:53;102666.77;;;-4.81;88.15
76730;BME280;65653;53.106;18.046;2022-12-18T04:30:20;102661.92;;;-4.86;88.18
76730;BME280;65653;53.106;18.046;2022-12-18T04:32:46;102669.17;;;-4.87;88.27
76730;BME280;65653;53.106;18.046;2022-12-18T04:35:13;102672.18;;;-4.86;88.30
76730;BME280;65653;53.106;18.046;2022-12-18T04:37:39;102671.84;;;-4.86;88.36
76730;BME280;65653;53.106;18.046;2022-12-18T04:40:06;102674.06;;;-4.88;88.42
76730;BME280;65653;53.106;18.046;2022-12-18T04:42:33;102679.56;;;-4.90;88.42
76730;BME280;65653;53.106;18.046;2022-12-18T04:44:59;102680.61;;;-4.89;88.35
76730;BME280;65653;53.106;18.046;2022-12-18T04:47:26;102683.01;;;-4.86;88.29
76730;BME280;65653;53.106;18.046;2022-12-18T04:49:52;102686.62;;;-4.87;88.12
76730;BME280;65653;53.106;18.046;2022-12-18T04:52:19;102689.23;;;-4.89;88.08
76730;BME280;65653;53.106;18.046;2022-12-18T04:54:45;102690.41;;;-4.96;88.02
76730;BME280;65653;53.106;18.046;2022-12-18T04:57:12;102693.30;;;-5.01;88.14
76730;BME280;65653;53.106;18.046;2022-12-18T04:59:38;102697.04;;;-5.00;88.21
76730;BME280;65653;53.106;18.046;2022-12-18T05:02:05;102698.80;;;-4.99;88.00
76730;BME280;65653;53.106;18.046;2022-12-18T05:04:31;102695.27;;;-5.05;88.03
76730;BME280;65653;53.106;18.046;2022-12-18T05:06:58;102695.00;;;-5.13;88.07
76730;BME280;65653;53.106;18.046;2022-12-18T05:09:24;102695.89;;;-5.17;88.13
76730;BME280;65653;53.106;18.046;2022-12-18T05:11:51;102699.09;;;-5.16;88.17
76730;BME280;65653;53.106;18.046;2022-12-18T05:14:17;102699.54;;;-5.19;88.02
76730;BME280;65653;53.106;18.046;2022-12-18T05:16:44;102700.72;;;-5.26;88.08
76730;BME280;65653;53.106;18.046;2022-12-18T05:19:10;102708.39;;;-5.34;88.07
76730;BME280;65653;53.106;18.046;2022-12-18T05:21:37;102718.91;;;-5.41;88.23
76730;BME280;65653;53.106;18.046;2022-12-18T05:24:04;102726.59;;;-5.44;88.16
76730;BME280;65653;53.106;18.046;2022-12-18T05:26:31;102731.16;;;-5.46;88.21
76730;BME280;65653;53.106;18.046;2022-12-18T05:28:57;102734.05;;;-5.52;88.08
76730;BME280;65653;53.106;18.046;2022-12-18T05:31:24;102740.54;;;-5.57;88.17
76730;BME280;65653;53.106;18.046;2022-12-18T05:33:50;102742.98;;;-5.60;88.24
76730;BME280;65653;53.106;18.046;2022-12-18T05:36:17;102746.24;;;-5.60;88.25
76730;BME280;65653;53.106;18.046;2022-12-18T05:38:43;102749.50;;;-5.61;88.19
76730;BME280;65653;53.106;18.046;2022-12-18T05:41:10;102752.16;;;-5.65;88.25
76730;BME280;65653;53.106;18.046;2022-12-18T05:43:38;102755.95;;;-5.70;88.34
76730;BME280;65653;53.106;18.046;2022-12-18T05:46:06;102759.93;;;-5.71;88.30
76730;BME280;65653;53.106;18.046;2022-12-18T05:48:34;102761.86;;;-5.70;88.29
76730;BME280;65653;53.106;18.046;2022-12-18T05:51:09;102766.13;;;-5.73;88.34
76730;BME280;65653;53.106;18.046;2022-12-18T05:53:36;102770.41;;;-5.79;88.38
76730;BME280;65653;53.106;18.046;2022-12-18T05:56:05;102771.69;;;-5.83;88.56
76730;BME280;65653;53.106;18.046;2022-12-18T05:58:32;102770.42;;;-5.83;88.69
76730;BME280;65653;53.106;18.046;2022-12-18T06:01:07;102774.95;;;-5.84;88.64
76730;BME280;65653;53.106;18.046;2022-12-18T06:03:34;102777.41;;;-5.88;88.65
76730;BME280;65653;53.106;18.046;2022-12-18T06:06:00;102777.65;;;-5.95;88.86
76730;BME280;65653;53.106;18.046;2022-12-18T06:08:27;102784.64;;;-6.00;88.99
76730;BME280;65653;53.106;18.046;2022-12-18T06:10:54;102783.95;;;-6.00;89.03
76730;BME280;65653;53.106;18.046;2022-12-18T06:13:21;102785.04;;;-6.01;88.89
76730;BME280;65653;53.106;18.046;2022-12-18T06:15:48;102784.81;;;-6.05;88.94
76730;BME280;65653;53.106;18.046;2022-12-18T06:18:14;102788.55;;;-6.14;89.07
76730;BME280;65653;53.106;18.046;2022-12-18T06:20:40;102792.52;;;-6.21;89.18
76730;BME280;65653;53.106;18.046;2022-12-18T06:23:07;102801.98;;;-6.24;89.39
76730;BME280;65653;53.106;18.046;2022-12-18T06:25:38;102808.08;;;-6.24;89.42
76730;BME280;65653;53.106;18.046;2022-12-18T06:28:05;102810.25;;;-6.24;89.43
76730;BME280;65653;53.106;18.046;2022-12-18T06:30:31;102814.32;;;-6.28;89.40
76730;BME280;65653;53.106;18.046;2022-12-18T06:32:58;102817.16;;;-6.33;89.47
76730;BME280;65653;53.106;18.046;2022-12-18T06:35:25;102820.91;;;-6.32;89.55
76730;BME280;65653;53.106;18.046;2022-12-18T06:37:51;102821.56;;;-6.29;89.48
76730;BME280;65653;53.106;18.046;2022-12-18T06:40:18;102827.64;;;-6.28;89.45
76730;BME280;65653;53.106;18.046;2022-12-18T06:42:44;102828.63;;;-6.31;89.52
76730;BME280;65653;53.106;18.046;2022-12-18T06:45:11;102828.47;;;-6.37;89.53
76730;BME280;65653;53.106;18.046;2022-12-18T06:47:37;102832.57;;;-6.42;89.78
76730;BME280;65653;53.106;18.046;2022-12-18T06:50:04;102841.38;;;-6.43;89.76
76730;BME280;65653;53.106;18.046;2022-12-18T06:52:32;102841.55;;;-6.42;89.77
76730;BME280;65653;53.106;18.046;2022-12-18T06:54:59;102849.41;;;-6.48;89.50
76730;BME280;65653;53.106;18.046;2022-12-18T06:57:25;102855.00;;;-6.54;89.57
76730;BME280;65653;53.106;18.046;2022-12-18T06:59:52;102854.52;;;-6.56;89.53
76730;BME280;65653;53.106;18.046;2022-12-18T07:02:19;102864.04;;;-6.56;89.17
76730;BME280;65653;53.106;18.046;2022-12-18T07:04:45;102868.84;;;-6.60;88.85
76730;BME280;65653;53.106;18.046;2022-12-18T07:07:12;102876.16;;;-6.72;88.58
76730;BME280;65653;53.106;18.046;2022-12-18T07:09:38;102883.23;;;-6.87;88.71
76730;BME280;65653;53.106;18.046;2022-12-18T07:12:05;102888.16;;;-6.96;88.92
76730;BME280;65653;53.106;18.046;2022-12-18T07:14:33;102895.35;;;-6.97;89.08
76730;BME280;65653;53.106;18.046;2022-12-18T07:17:00;102894.00;;;-7.00;88.97
76730;BME280;65653;53.106;18.046;2022-12-18T07:19:26;102891.05;;;-7.04;88.99
76730;BME280;65653;53.106;18.046;2022-12-18T07:21:53;102897.66;;;-7.09;88.88
76730;BME280;65653;53.106;18.046;2022-12-18T07:24:19;102899.32;;;-7.17;88.97
76730;BME280;65653;53.106;18.046;2022-12-18T07:26:46;102905.12;;;-7.19;89.09
76730;BME280;65653;53.106;18.046;2022-12-18T07:29:13;102900.61;;;-7.19;89.16
76730;BME280;65653;53.106;18.046;2022-12-18T07:31:39;102901.51;;;-7.19;89.17
76730;BME280;65653;53.106;18.046;2022-12-18T07:34:12;102904.58;;;-7.21;89.21
76730;BME280;65653;53.106;18.046;2022-12-18T07:36:39;102907.48;;;-7.21;89.29
76730;BME280;65653;53.106;18.046;2022-12-18T07:39:06;102916.70;;;-7.24;89.31
76730;BME280;65653;53.106;18.046;2022-12-18T07:41:33;102918.73;;;-7.26;89.53
76730;BME280;65653;53.106;18.046;2022-12-18T07:43:59;102929.16;;;-7.27;89.60
76730;BME280;65653;53.106;18.046;2022-12-18T07:46:26;102931.71;;;-7.21;89.64
76730;BME280;65653;53.106;18.046;2022-12-18T07:48:52;102933.21;;;-7.10;89.37
76730;BME280;65653;53.106;18.046;2022-12-18T07:51:19;102934.63;;;-7.02;89.01
76730;BME280;65653;53.106;18.046;2022-12-18T07:53:46;102938.17;;;-7.00;88.74
76730;BME280;65653;53.106;18.046;2022-12-18T07:56:13;102939.73;;;-7.05;88.49
76730;BME280;65653;53.106;18.046;2022-12-18T07:58:39;102934.17;;;-7.05;88.33
76730;BME280;65653;53.106;18.046;2022-12-18T08:01:08;102930.25;;;-7.06;88.37
76730;BME280;65653;53.106;18.046;2022-12-18T08:03:38;102932.05;;;-7.07;88.20
76730;BME280;65653;53.106;18.046;2022-12-18T08:06:08;102938.11;;;-7.05;88.19
76730;BME280;65653;53.106;18.046;2022-12-18T08:08:35;102944.11;;;-7.08;88.03
76730;BME280;65653;53.106;18.046;2022-12-18T08:11:03;102951.02;;;-7.11;88.05
76730;BME280;65653;53.106;18.046;2022-12-18T08:13:29;102955.68;;;-7.11;88.24
76730;BME280;65653;53.106;18.046;2022-12-18T08:16:04;102954.99;;;-7.05;88.22
76730;BME280;65653;53.106;18.046;2022-12-18T08:18:32;102956.74;;;-6.96;87.95
76730;BME280;65653;53.106;18.046;2022-12-18T08:21:22;102965.27;;;-7.00;87.82
76730;BME280;65653;53.106;18.046;2022-12-18T08:23:50;102963.33;;;-7.08;88.09
76730;BME280;65653;53.106;18.046;2022-12-18T08:26:18;102962.73;;;-6.98;88.21
76730;BME280;65653;53.106;18.046;2022-12-18T08:28:45;102966.92;;;-6.94;87.84
76730;BME280;65653;53.106;18.046;2022-12-18T08:31:12;102971.81;;;-6.96;87.80
76730;BME280;65653;53.106;18.046;2022-12-18T08:33:39;102976.13;;;-6.96;87.82
76730;BME280;65653;53.106;18.046;2022-12-18T08:36:07;102972.61;;;-6.85;87.70
76730;BME280;65653;53.106;18.046;2022-12-18T08:38:34;102978.21;;;-6.73;87.31
76730;BME280;65653;53.106;18.046;2022-12-18T08:41:06;102989.11;;;-6.64;87.03
76730;BME280;65653;53.106;18.046;2022-12-18T08:43:35;103000.56;;;-6.62;86.65
76730;BME280;65653;53.106;18.046;2022-12-18T08:46:24;102998.65;;;-6.65;86.49
76730;BME280;65653;53.106;18.046;2022-12-18T08:48:53;103001.55;;;-6.66;86.46
76730;BME280;65653;53.106;18.046;2022-12-18T08:51:20;103001.45;;;-6.62;86.56
76730;BME280;65653;53.106;18.046;2022-12-18T08:53:48;103004.06;;;-6.66;86.59
76730;BME280;65653;53.106;18.046;2022-12-18T08:56:15;103002.29;;;-6.60;86.82
76730;BME280;65653;53.106;18.046;2022-12-18T08:58:43;103001.64;;;-6.62;86.78
76730;BME280;65653;53.106;18.046;2022-12-18T09:01:11;103000.58;;;-6.56;86.80
76730;BME280;65653;53.106;18.046;2022-12-18T09:03:39;102993.42;;;-6.43;86.26
76730;BME280;65653;53.106;18.046;2022-12-18T09:06:06;102985.00;;;-6.51;85.63
76730;BME280;65653;53.106;18.046;2022-12-18T09:08:32;102985.20;;;-6.59;85.91
76730;BME280;65653;53.106;18.046;2022-12-18T09:11:01;102991.27;;;-6.57;86.11
76730;BME280;65653;53.106;18.046;2022-12-18T09:13:29;102992.16;;;-6.50;86.06
76730;BME280;65653;53.106;18.046;2022-12-18T09:15:56;102986.25;;;-6.38;85.60
76730;BME280;65653;53.106;18.046;2022-12-18T09:18:24;102975.19;;;-6.28;85.17
76730;BME280;65653;53.106;18.046;2022-12-18T09:20:51;102976.83;;;-6.22;84.91
76730;BME280;65653;53.106;18.046;2022-12-18T09:23:19;102969.83;;;-6.23;84.60
76730;BME280;65653;53.106;18.046;2022-12-18T09:25:47;102966.92;;;-6.22;84.52
76730;BME280;65653;53.106;18.046;2022-12-18T09:28:16;102966.44;;;-5.99;84.05
76730;BME280;65653;53.106;18.046;2022-12-18T09:30:56;102964.40;;;-5.63;83.78
76730;BME280;65653;53.106;18.046;2022-12-18T09:33:23;102953.27;;;-5.31;82.50
76730;BME280;65653;53.106;18.046;2022-12-18T09:35:50;102950.20;;;-5.25;81.48
76730;BME280;65653;53.106;18.046;2022-12-18T09:38:18;102952.95;;;-5.37;81.33
76730;BME280;65653;53.106;18.046;2022-12-18T09:40:53;102953.27;;;-5.47;81.40
76730;BME280;65653;53.106;18.046;2022-12-18T09:43:45;102956.80;;;-5.45;81.43
76730;BME280;65653;53.106;18.046;2022-12-18T09:46:18;102967.70;;;-5.42;81.32
76730;BME280;65653;53.106;18.046;2022-12-18T09:48:49;102971.20;;;-5.39;81.29
76730;BME280;65653;53.106;18.046;2022-12-18T09:51:43;102972.52;;;-5.41;81.09
76730;BME280;65653;53.106;18.046;2022-12-18T09:54:14;102968.88;;;-5.51;81.23
76730;BME280;65653;53.106;18.046;2022-12-18T09:56:43;102970.89;;;-5.52;81.33
76730;BME280;65653;53.106;18.046;2022-12-18T09:59:23;102963.06;;;-5.44;81.60
76730;BME280;65653;53.106;18.046;2022-12-18T10:01:51;102961.20;;;-5.31;81.32
76730;BME280;65653;53.106;18.046;2022-12-18T10:04:18;102961.03;;;-5.37;81.40
76730;BME280;65653;53.106;18.046;2022-12-18T10:06:57;102952.75;;;-5.31;81.81
76730;BME280;65653;53.106;18.046;2022-12-18T10:09:37;102952.59;;;-5.26;81.64
76730;BME280;65653;53.106;18.046;2022-12-18T10:12:21;102954.73;;;-5.15;81.52
76730;BME280;65653;53.106;18.046;2022-12-18T10:15:07;102954.25;;;-5.00;80.92
76730;BME280;65653;53.106;18.046;2022-12-18T10:20:52;102963.02;;;-5.20;80.39
76730;BME280;65653;53.106;18.046;2022-12-18T10:26:10;102970.30;;;-5.06;80.85
76730;BME280;65653;53.106;18.046;2022-12-18T10:28:40;102978.67;;;-4.98;80.20
76730;BME280;65653;53.106;18.046;2022-12-18T10:31:15;102982.11;;;-5.04;80.23
76730;BME280;65653;53.106;18.046;2022-12-18T10:33:45;102983.63;;;-5.12;80.61
76730;BME280;65653;53.106;18.046;2022-12-18T10:36:12;102990.39;;;-5.15;80.74
76730;BME280;65653;53.106;18.046;2022-12-18T10:38:40;102989.17;;;-5.27;80.95
76730;BME280;65653;53.106;18.046;2022-12-18T10:41:23;102991.89;;;-5.33;81.06
76730;BME280;65653;53.106;18.046;2022-12-18T10:44:16;102984.20;;;-5.40;81.14
76730;BME280;65653;53.106;18.046;2022-12-18T10:46:46;102978.70;;;-5.43;81.14
76730;BME280;65653;53.106;18.046;2022-12-18T10:49:29;102983.89;;;-5.53;81.41
76730;BME280;65653;53.106;18.046;2022-12-18T10:55:13;102992.06;;;-5.62;82.00
76730;BME280;65653;53.106;18.046;2022-12-18T10:57:42;102999.29;;;-5.51;82.11
76730;BME280;65653;53.106;18.046;2022-12-18T11:00:24;103002.67;;;-5.44;81.89
76730;BME280;65653;53.106;18.046;2022-12-18T11:02:51;103005.34;;;-5.43;81.40
76730;BME280;65653;53.106;18.046;2022-12-18T11:05:31;103009.08;;;-5.41;81.03
76730;BME280;65653;53.106;18.046;2022-12-18T11:08:00;103007.30;;;-5.31;81.30
76730;BME280;65653;53.106;18.046;2022-12-18T11:10:36;103010.98;;;-5.17;80.79
76730;BME280;65653;53.106;18.046;2022-12-18T11:13:11;103010.13;;;-5.24;80.31
76730;BME280;65653;53.106;18.046;2022-12-18T11:15:40;103012.38;;;-5.38;80.24
76730;BME280;65653;53.106;18.046;2022-12-18T11:21:05;103019.63;;;-5.51;81.13
76730;BME280;65653;53.106;18.046;2022-12-18T11:23:33;103015.16;;;-5.52;81.28
76730;BME280;65653;53.106;18.046;2022-12-18T11:26:03;103015.08;;;-5.43;81.15
76730;BME280;65653;53.106;18.046;2022-12-18T11:28:37;103011.67;;;-5.38;81.02
76730;BME280;65653;53.106;18.046;2022-12-18T11:31:28;103007.49;;;-5.37;81.15
76730;BME280;65653;53.106;18.046;2022-12-18T11:34:10;102999.17;;;-5.36;81.26
76730;BME280;65653;53.106;18.046;2022-12-18T11:36:44;102992.96;;;-5.28;81.37
76730;BME280;65653;53.106;18.046;2022-12-18T11:39:17;102989.95;;;-5.12;81.32
76730;BME280;65653;53.106;18.046;2022-12-18T11:41:54;102991.96;;;-4.91;81.26
76730;BME280;65653;53.106;18.046;2022-12-18T11:47:21;102987.85;;;-4.71;80.36
76730;BME280;65653;53.106;18.046;2022-12-18T11:49:52;102991.69;;;-4.57;79.21
76730;BME280;65653;53.106;18.046;2022-12-18T11:52:26;102991.89;;;-4.64;78.34
76730;BME280;65653;53.106;18.046;2022-12-18T11:54:58;102991.26;;;-4.71;79.09
76730;BME280;65653;53.106;18.046;2022-12-18T12:00:07;103006.50;;;-4.90;79.10
76730;BME280;65653;53.106;18.046;2022-12-18T12:08:35;103013.70;;;-5.40;80.70
76730;BME280;65653;53.106;18.046;2022-12-18T12:16:56;103011.59;;;-5.47;81.02
76730;BME280;65653;53.106;18.046;2022-12-18T12:20:00;103017.30;;;-5.63;81.26
76730;BME280;65653;53.106;18.046;2022-12-18T12:22:53;103025.75;;;-5.69;81.54
76730;BME280;65653;53.106;18.046;2022-12-18T12:25:33;103031.89;;;-5.69;81.60
76730;BME280;65653;53.106;18.046;2022-12-18T12:28:09;103034.52;;;-5.79;81.45
76730;BME280;65653;53.106;18.046;2022-12-18T12:30:58;103036.02;;;-5.87;81.72
76730;BME280;65653;53.106;18.046;2022-12-18T12:38:41;103057.45;;;-5.94;82.36
76730;BME280;65653;53.106;18.046;2022-12-18T12:41:17;103063.45;;;-6.03;82.17
76730;BME280;65653;53.106;18.046;2022-12-18T12:44:08;103070.80;;;-6.08;82.60
76730;BME280;65653;53.106;18.046;2022-12-18T12:46:41;103077.01;;;-6.24;82.69
76730;BME280;65653;53.106;18.046;2022-12-18T12:49:15;103074.70;;;-6.33;83.27
76730;BME280;65653;53.106;18.046;2022-12-18T12:51:49;103082.35;;;-6.29;83.44
76730;BME280;65653;53.106;18.046;2022-12-18T12:54:21;103085.37;;;-6.28;83.66
76730;BME280;65653;53.106;18.046;2022-12-18T12:57:09;103086.90;;;-6.31;83.70
76730;BME280;65653;53.106;18.046;2022-12-18T13:05:24;103088.00;;;-6.53;83.92
76730;BME280;65653;53.106;18.046;2022-12-18T13:08:04;103090.33;;;-6.60;84.23
76730;BME280;65653;53.106;18.046;2022-12-18T13:10:52;103087.54;;;-6.71;84.67
76730;BME280;65653;53.106;18.046;2022-12-18T13:13:51;103091.23;;;-6.67;84.72
76730;BME280;65653;53.106;18.046;2022-12-18T13:16:22;103093.73;;;-6.59;84.68
76730;BME280;65653;53.106;18.046;2022-12-18T13:18:51;103086.52;;;-6.58;84.58
76730;BME280;65653;53.106;18.046;2022-12-18T13:21:24;103084.89;;;-6.58;84.64
76730;BME280;65653;53.106;18.046;2022-12-18T13:23:54;103084.69;;;-6.57;84.53
76730;BME280;65653;53.106;18.046;2022-12-18T13:28:56;103080.47;;;-6.75;84.79
76730;BME280;65653;53.106;18.046;2022-12-18T13:34:29;103077.48;;;-6.78;85.28
76730;BME280;65653;53.106;18.046;2022-12-18T13:37:37;103071.30;;;-6.74;85.32
76730;BME280;65653;53.106;18.046;2022-12-18T13:40:50;103074.66;;;-6.72;85.26
76730;BME280;65653;53.106;18.046;2022-12-18T13:43:23;103080.02;;;-6.71;85.46
76730;BME280;65653;53.106;18.046;2022-12-18T13:48:50;103082.77;;;-6.67;85.49
76730;BME280;65653;53.106;18.046;2022-12-18T13:51:19;103083.21;;;-6.70;85.52
76730;BME280;65653;53.106;18.046;2022-12-18T13:53:50;103078.93;;;-6.71;85.79
76730;BME280;65653;53.106;18.046;2022-12-18T13:56:18;103073.69;;;-6.69;85.65
76730;BME280;65653;53.106;18.046;2022-12-18T13:58:44;103077.32;;;-6.71;85.87
76730;BME280;65653;53.106;18.046;2022-12-18T14:01:23;103080.02;;;-6.72;85.93